Terminal Aerodrome Forecast
Issued by NWS

Home | Current Version | Previous Version | Text Only | Print | Product List | Glossary On
Versions: 1 2 3 4 5 6 7 8 9 10 11 12 13 14 15
871
FTUS46 KSEW 122339
TAFBLI
TAF
KBLI 122339Z 1300/1324 16008KT P6SM SCT025 SCT040
     FM130900 16007KT 5SM -SHRA SCT020 OVC030
     FM131300 16011KT P6SM SCT020 OVC035
     FM132100 15012G22KT P6SM -RA OVC035=

USA.gov is the U.S. government's official web portal to all federal, state and local government web resources and services.